sensor_id;sensor_type;location;lat;lon;timestamp;P1;durP1;ratioP1;P2;durP2;ratioP2
18146;SDS011;9199;48.832;9.182;2022-07-29T00:00:48;7.77;;;4.60;;
18146;SDS011;9199;48.832;9.182;2022-07-29T00:03:15;7.70;;;4.75;;
18146;SDS011;9199;48.832;9.182;2022-07-29T00:05:42;6.80;;;4.28;;
18146;SDS011;9199;48.832;9.182;2022-07-29T00:08:08;6.57;;;4.47;;
18146;SDS011;9199;48.832;9.182;2022-07-29T00:10:35;6.45;;;4.40;;
18146;SDS011;9199;48.832;9.182;2022-07-29T00:13:03;6.30;;;4.70;;
18146;SDS011;9199;48.832;9.182;2022-07-29T00:15:30;7.63;;;4.70;;
18146;SDS011;9199;48.832;9.182;2022-07-29T00:17:57;9.20;;;5.05;;
18146;SDS011;9199;48.832;9.182;2022-07-29T00:20:23;8.05;;;5.47;;
18146;SDS011;9199;48.832;9.182;2022-07-29T00:22:50;9.40;;;5.20;;
18146;SDS011;9199;48.832;9.182;2022-07-29T00:25:18;9.77;;;5.57;;
18146;SDS011;9199;48.832;9.182;2022-07-29T00:27:45;7.22;;;5.18;;
18146;SDS011;9199;48.832;9.182;2022-07-29T00:30:13;7.95;;;5.20;;
18146;SDS011;9199;48.832;9.182;2022-07-29T00:32:40;7.95;;;4.97;;
18146;SDS011;9199;48.832;9.182;2022-07-29T00:35:07;6.25;;;4.70;;
18146;SDS011;9199;48.832;9.182;2022-07-29T00:37:52;8.27;;;5.57;;
18146;SDS011;9199;48.832;9.182;2022-07-29T00:40:20;7.93;;;5.53;;
18146;SDS011;9199;48.832;9.182;2022-07-29T00:42:47;7.22;;;5.53;;
18146;SDS011;9199;48.832;9.182;2022-07-29T00:45:17;10.32;;;5.95;;
18146;SDS011;9199;48.832;9.182;2022-07-29T00:47:44;7.22;;;5.50;;
18146;SDS011;9199;48.832;9.182;2022-07-29T00:50:12;7.20;;;5.50;;
18146;SDS011;9199;48.832;9.182;2022-07-29T00:52:39;6.93;;;5.30;;
18146;SDS011;9199;48.832;9.182;2022-07-29T00:55:09;8.10;;;5.10;;
18146;SDS011;9199;48.832;9.182;2022-07-29T00:57:37;7.10;;;4.90;;
18146;SDS011;9199;48.832;9.182;2022-07-29T01:00:06;6.43;;;4.95;;
18146;SDS011;9199;48.832;9.182;2022-07-29T01:02:37;7.50;;;5.27;;
18146;SDS011;9199;48.832;9.182;2022-07-29T01:05:04;7.57;;;4.90;;
18146;SDS011;9199;48.832;9.182;2022-07-29T01:07:32;6.45;;;4.20;;
18146;SDS011;9199;48.832;9.182;2022-07-29T01:10:01;7.53;;;4.53;;
18146;SDS011;9199;48.832;9.182;2022-07-29T01:12:29;8.48;;;4.95;;
18146;SDS011;9199;48.832;9.182;2022-07-29T01:14:58;6.37;;;4.47;;
18146;SDS011;9199;48.832;9.182;2022-07-29T01:17:26;6.90;;;4.40;;
18146;SDS011;9199;48.832;9.182;2022-07-29T01:20:00;6.22;;;4.53;;
18146;SDS011;9199;48.832;9.182;2022-07-29T01:22:37;6.53;;;4.10;;
18146;SDS011;9199;48.832;9.182;2022-07-29T01:25:31;6.40;;;4.30;;
18146;SDS011;9199;48.832;9.182;2022-07-29T01:28:32;6.23;;;4.70;;
18146;SDS011;9199;48.832;9.182;2022-07-29T01:31:15;7.50;;;4.57;;
18146;SDS011;9199;48.832;9.182;2022-07-29T01:33:49;5.20;;;4.30;;
18146;SDS011;9199;48.832;9.182;2022-07-29T01:36:22;7.40;;;4.57;;
18146;SDS011;9199;48.832;9.182;2022-07-29T01:38:54;6.95;;;4.35;;
18146;SDS011;9199;48.832;9.182;2022-07-29T01:41:28;6.33;;;4.07;;
18146;SDS011;9199;48.832;9.182;2022-07-29T01:44:01;6.30;;;4.50;;
18146;SDS011;9199;48.832;9.182;2022-07-29T01:46:36;6.30;;;4.35;;
18146;SDS011;9199;48.832;9.182;2022-07-29T01:49:06;6.57;;;4.60;;
18146;SDS011;9199;48.832;9.182;2022-07-29T01:51:38;7.30;;;4.00;;
18146;SDS011;9199;48.832;9.182;2022-07-29T01:54:10;5.97;;;4.23;;
18146;SDS011;9199;48.832;9.182;2022-07-29T01:56:40;6.05;;;4.28;;
18146;SDS011;9199;48.832;9.182;2022-07-29T01:59:10;6.25;;;3.88;;
18146;SDS011;9199;48.832;9.182;2022-07-29T02:01:39;6.35;;;4.20;;
18146;SDS011;9199;48.832;9.182;2022-07-29T02:04:09;6.50;;;4.00;;
18146;SDS011;9199;48.832;9.182;2022-07-29T02:06:38;6.60;;;4.40;;
18146;SDS011;9199;48.832;9.182;2022-07-29T02:09:06;5.72;;;3.85;;
18146;SDS011;9199;48.832;9.182;2022-07-29T02:11:35;5.63;;;4.15;;
18146;SDS011;9199;48.832;9.182;2022-07-29T02:14:03;5.93;;;4.15;;
18146;SDS011;9199;48.832;9.182;2022-07-29T02:16:34;6.13;;;4.20;;
18146;SDS011;9199;48.832;9.182;2022-07-29T02:19:03;9.23;;;4.63;;
18146;SDS011;9199;48.832;9.182;2022-07-29T02:21:31;6.85;;;4.20;;
18146;SDS011;9199;48.832;9.182;2022-07-29T02:23:59;4.90;;;3.85;;
18146;SDS011;9199;48.832;9.182;2022-07-29T02:26:28;6.60;;;3.88;;
18146;SDS011;9199;48.832;9.182;2022-07-29T02:28:57;5.65;;;4.00;;
18146;SDS011;9199;48.832;9.182;2022-07-29T02:31:26;7.37;;;4.27;;
18146;SDS011;9199;48.832;9.182;2022-07-29T02:33:57;5.93;;;3.78;;
18146;SDS011;9199;48.832;9.182;2022-07-29T02:36:26;7.28;;;4.28;;
18146;SDS011;9199;48.832;9.182;2022-07-29T02:38:54;6.60;;;4.05;;
18146;SDS011;9199;48.832;9.182;2022-07-29T02:41:23;6.40;;;4.25;;
18146;SDS011;9199;48.832;9.182;2022-07-29T02:43:54;8.50;;;5.00;;
18146;SDS011;9199;48.832;9.182;2022-07-29T02:46:25;8.27;;;5.28;;
18146;SDS011;9199;48.832;9.182;2022-07-29T02:48:59;7.88;;;5.72;;
18146;SDS011;9199;48.832;9.182;2022-07-29T02:51:32;9.30;;;6.25;;
18146;SDS011;9199;48.832;9.182;2022-07-29T02:54:05;8.77;;;6.47;;
18146;SDS011;9199;48.832;9.182;2022-07-29T02:56:35;9.80;;;6.67;;
18146;SDS011;9199;48.832;9.182;2022-07-29T02:59:05;9.52;;;6.88;;
18146;SDS011;9199;48.832;9.182;2022-07-29T03:01:35;8.88;;;6.80;;
18146;SDS011;9199;48.832;9.182;2022-07-29T03:04:09;8.90;;;6.85;;
18146;SDS011;9199;48.832;9.182;2022-07-29T03:06:37;8.55;;;6.85;;
18146;SDS011;9199;48.832;9.182;2022-07-29T03:09:05;9.00;;;6.60;;
18146;SDS011;9199;48.832;9.182;2022-07-29T03:11:33;9.02;;;6.78;;
18146;SDS011;9199;48.832;9.182;2022-07-29T03:14:01;9.88;;;6.93;;
18146;SDS011;9199;48.832;9.182;2022-07-29T03:16:30;7.50;;;6.07;;
18146;SDS011;9199;48.832;9.182;2022-07-29T03:18:57;9.65;;;7.03;;
18146;SDS011;9199;48.832;9.182;2022-07-29T03:21:25;8.93;;;6.50;;
18146;SDS011;9199;48.832;9.182;2022-07-29T03:23:52;9.13;;;6.43;;
18146;SDS011;9199;48.832;9.182;2022-07-29T03:26:19;9.90;;;6.75;;
18146;SDS011;9199;48.832;9.182;2022-07-29T03:28:45;8.98;;;6.72;;
18146;SDS011;9199;48.832;9.182;2022-07-29T03:31:12;9.88;;;6.85;;
18146;SDS011;9199;48.832;9.182;2022-07-29T03:33:39;10.63;;;6.43;;
18146;SDS011;9199;48.832;9.182;2022-07-29T03:36:05;10.00;;;7.00;;
18146;SDS011;9199;48.832;9.182;2022-07-29T03:38:33;9.77;;;6.60;;
18146;SDS011;9199;48.832;9.182;2022-07-29T03:41:03;9.40;;;7.15;;
18146;SDS011;9199;48.832;9.182;2022-07-29T03:43:35;8.45;;;6.60;;
18146;SDS011;9199;48.832;9.182;2022-07-29T03:46:04;10.23;;;7.03;;
18146;SDS011;9199;48.832;9.182;2022-07-29T03:48:33;9.63;;;6.85;;
18146;SDS011;9199;48.832;9.182;2022-07-29T03:51:03;11.45;;;7.07;;
18146;SDS011;9199;48.832;9.182;2022-07-29T03:53:29;10.20;;;6.50;;
18146;SDS011;9199;48.832;9.182;2022-07-29T03:55:58;10.10;;;6.95;;
18146;SDS011;9199;48.832;9.182;2022-07-29T03:58:27;8.70;;;6.33;;
18146;SDS011;9199;48.832;9.182;2022-07-29T04:00:56;9.57;;;7.20;;
18146;SDS011;9199;48.832;9.182;2022-07-29T04:03:23;8.50;;;6.93;;
18146;SDS011;9199;48.832;9.182;2022-07-29T04:06:00;7.95;;;6.40;;
18146;SDS011;9199;48.832;9.182;2022-07-29T04:08:27;9.27;;;6.72;;
18146;SDS011;9199;48.832;9.182;2022-07-29T04:10:54;8.77;;;5.33;;
18146;SDS011;9199;48.832;9.182;2022-07-29T04:13:22;9.20;;;6.72;;
18146;SDS011;9199;48.832;9.182;2022-07-29T04:15:49;8.77;;;6.60;;
18146;SDS011;9199;48.832;9.182;2022-07-29T04:18:16;9.13;;;5.95;;
18146;SDS011;9199;48.832;9.182;2022-07-29T04:20:43;9.10;;;6.55;;
18146;SDS011;9199;48.832;9.182;2022-07-29T04:23:09;8.10;;;5.90;;
18146;SDS011;9199;48.832;9.182;2022-07-29T04:25:37;10.70;;;6.90;;
18146;SDS011;9199;48.832;9.182;2022-07-29T04:28:04;8.60;;;6.38;;
18146;SDS011;9199;48.832;9.182;2022-07-29T04:30:33;8.55;;;6.68;;
18146;SDS011;9199;48.832;9.182;2022-07-29T04:33:01;9.23;;;7.00;;
18146;SDS011;9199;48.832;9.182;2022-07-29T04:35:30;8.20;;;6.53;;
18146;SDS011;9199;48.832;9.182;2022-07-29T04:37:59;8.70;;;6.90;;
18146;SDS011;9199;48.832;9.182;2022-07-29T04:40:27;9.82;;;6.60;;
18146;SDS011;9199;48.832;9.182;2022-07-29T04:42:53;13.75;;;6.90;;
18146;SDS011;9199;48.832;9.182;2022-07-29T04:45:20;9.45;;;6.63;;
18146;SDS011;9199;48.832;9.182;2022-07-29T04:47:49;9.70;;;6.43;;
18146;SDS011;9199;48.832;9.182;2022-07-29T04:50:15;9.85;;;6.72;;
18146;SDS011;9199;48.832;9.182;2022-07-29T04:52:42;10.35;;;6.93;;
18146;SDS011;9199;48.832;9.182;2022-07-29T04:55:09;8.35;;;6.20;;
18146;SDS011;9199;48.832;9.182;2022-07-29T04:57:36;10.32;;;7.05;;
18146;SDS011;9199;48.832;9.182;2022-07-29T05:00:03;8.93;;;6.57;;
18146;SDS011;9199;48.832;9.182;2022-07-29T05:02:31;9.20;;;6.75;;
18146;SDS011;9199;48.832;9.182;2022-07-29T05:04:59;10.45;;;6.18;;
18146;SDS011;9199;48.832;9.182;2022-07-29T05:07:26;10.52;;;6.47;;
18146;SDS011;9199;48.832;9.182;2022-07-29T05:09:52;10.13;;;6.10;;
18146;SDS011;9199;48.832;9.182;2022-07-29T05:12:21;9.17;;;6.60;;
18146;SDS011;9199;48.832;9.182;2022-07-29T05:14:48;9.98;;;6.40;;
18146;SDS011;9199;48.832;9.182;2022-07-29T05:17:15;7.68;;;6.20;;
18146;SDS011;9199;48.832;9.182;2022-07-29T05:19:41;8.50;;;5.93;;
18146;SDS011;9199;48.832;9.182;2022-07-29T05:22:10;9.10;;;6.38;;
18146;SDS011;9199;48.832;9.182;2022-07-29T05:24:36;8.30;;;5.80;;
18146;SDS011;9199;48.832;9.182;2022-07-29T05:27:03;7.53;;;5.30;;
18146;SDS011;9199;48.832;9.182;2022-07-29T05:29:30;7.07;;;4.60;;
18146;SDS011;9199;48.832;9.182;2022-07-29T05:31:57;7.20;;;4.80;;
18146;SDS011;9199;48.832;9.182;2022-07-29T05:34:23;6.93;;;4.60;;
18146;SDS011;9199;48.832;9.182;2022-07-29T05:36:50;5.73;;;3.80;;
18146;SDS011;9199;48.832;9.182;2022-07-29T05:39:18;5.80;;;3.92;;
18146;SDS011;9199;48.832;9.182;2022-07-29T05:41:46;6.30;;;4.32;;
18146;SDS011;9199;48.832;9.182;2022-07-29T05:44:12;4.55;;;3.20;;
18146;SDS011;9199;48.832;9.182;2022-07-29T05:46:39;6.22;;;3.65;;
18146;SDS011;9199;48.832;9.182;2022-07-29T05:49:06;4.53;;;2.43;;
18146;SDS011;9199;48.832;9.182;2022-07-29T05:51:32;6.40;;;2.88;;
18146;SDS011;9199;48.832;9.182;2022-07-29T05:53:59;4.72;;;2.70;;
18146;SDS011;9199;48.832;9.182;2022-07-29T05:56:28;4.07;;;2.83;;
18146;SDS011;9199;48.832;9.182;2022-07-29T05:58:55;4.75;;;3.08;;
18146;SDS011;9199;48.832;9.182;2022-07-29T06:01:21;5.73;;;3.33;;
18146;SDS011;9199;48.832;9.182;2022-07-29T06:03:48;6.35;;;3.35;;
18146;SDS011;9199;48.832;9.182;2022-07-29T06:06:15;5.38;;;3.20;;
18146;SDS011;9199;48.832;9.182;2022-07-29T06:08:42;5.38;;;3.50;;
18146;SDS011;9199;48.832;9.182;2022-07-29T06:11:08;6.03;;;3.25;;
18146;SDS011;9199;48.832;9.182;2022-07-29T06:13:36;5.63;;;2.80;;
18146;SDS011;9199;48.832;9.182;2022-07-29T06:16:03;5.90;;;3.00;;
18146;SDS011;9199;48.832;9.182;2022-07-29T06:18:30;5.75;;;2.80;;
18146;SDS011;9199;48.832;9.182;2022-07-29T06:26:55;5.47;;;2.67;;
18146;SDS011;9199;48.832;9.182;2022-07-29T06:29:23;5.13;;;2.42;;
18146;SDS011;9199;48.832;9.182;2022-07-29T06:31:49;5.28;;;2.33;;
18146;SDS011;9199;48.832;9.182;2022-07-29T06:34:16;4.95;;;2.45;;
18146;SDS011;9199;48.832;9.182;2022-07-29T06:36:43;5.00;;;2.35;;
18146;SDS011;9199;48.832;9.182;2022-07-29T06:39:10;5.07;;;2.67;;
18146;SDS011;9199;48.832;9.182;2022-07-29T06:41:37;4.05;;;2.35;;
18146;SDS011;9199;48.832;9.182;2022-07-29T06:44:03;4.65;;;2.45;;
18146;SDS011;9199;48.832;9.182;2022-07-29T06:46:31;5.72;;;2.60;;
18146;SDS011;9199;48.832;9.182;2022-07-29T06:48:58;3.72;;;2.33;;
18146;SDS011;9199;48.832;9.182;2022-07-29T06:51:26;5.20;;;2.43;;
18146;SDS011;9199;48.832;9.182;2022-07-29T06:53:53;5.03;;;2.30;;
18146;SDS011;9199;48.832;9.182;2022-07-29T06:56:20;4.22;;;2.45;;
18146;SDS011;9199;48.832;9.182;2022-07-29T06:58:47;5.25;;;2.45;;
18146;SDS011;9199;48.832;9.182;2022-07-29T07:01:13;4.60;;;2.50;;
18146;SDS011;9199;48.832;9.182;2022-07-29T07:03:41;5.80;;;2.43;;
18146;SDS011;9199;48.832;9.182;2022-07-29T07:06:08;6.20;;;2.70;;
18146;SDS011;9199;48.832;9.182;2022-07-29T07:08:35;5.20;;;2.70;;
18146;SDS011;9199;48.832;9.182;2022-07-29T07:11:01;5.35;;;2.75;;
18146;SDS011;9199;48.832;9.182;2022-07-29T07:13:29;6.63;;;3.13;;
18146;SDS011;9199;48.832;9.182;2022-07-29T07:15:59;5.40;;;2.70;;
18146;SDS011;9199;48.832;9.182;2022-07-29T07:18:26;8.07;;;3.30;;
18146;SDS011;9199;48.832;9.182;2022-07-29T07:20:55;5.75;;;2.78;;
18146;SDS011;9199;48.832;9.182;2022-07-29T07:23:22;6.30;;;3.05;;
18146;SDS011;9199;48.832;9.182;2022-07-29T07:25:49;5.53;;;2.80;;
18146;SDS011;9199;48.832;9.182;2022-07-29T07:28:16;4.77;;;2.90;;
18146;SDS011;9199;48.832;9.182;2022-07-29T07:30:44;9.52;;;2.83;;
18146;SDS011;9199;48.832;9.182;2022-07-29T07:33:11;5.82;;;2.85;;
18146;SDS011;9199;48.832;9.182;2022-07-29T07:35:38;5.28;;;2.97;;
18146;SDS011;9199;48.832;9.182;2022-07-29T07:38:06;4.25;;;2.80;;
18146;SDS011;9199;48.832;9.182;2022-07-29T07:40:33;5.17;;;2.53;;
18146;SDS011;9199;48.832;9.182;2022-07-29T07:43:00;4.82;;;2.70;;
18146;SDS011;9199;48.832;9.182;2022-07-29T07:45:27;6.78;;;3.20;;
18146;SDS011;9199;48.832;9.182;2022-07-29T07:47:54;4.30;;;2.70;;
18146;SDS011;9199;48.832;9.182;2022-07-29T07:50:21;5.72;;;2.80;;
18146;SDS011;9199;48.832;9.182;2022-07-29T07:52:48;4.90;;;2.63;;
18146;SDS011;9199;48.832;9.182;2022-07-29T07:55:18;6.05;;;2.90;;
18146;SDS011;9199;48.832;9.182;2022-07-29T07:57:45;4.35;;;2.90;;
18146;SDS011;9199;48.832;9.182;2022-07-29T08:00:12;6.00;;;3.03;;
18146;SDS011;9199;48.832;9.182;2022-07-29T08:02:40;5.32;;;2.75;;
18146;SDS011;9199;48.832;9.182;2022-07-29T08:05:09;4.27;;;2.60;;
18146;SDS011;9199;48.832;9.182;2022-07-29T08:07:41;4.93;;;2.80;;
18146;SDS011;9199;48.832;9.182;2022-07-29T08:10:08;5.35;;;3.03;;
18146;SDS011;9199;48.832;9.182;2022-07-29T08:12:36;6.32;;;3.20;;
18146;SDS011;9199;48.832;9.182;2022-07-29T08:15:03;6.65;;;2.80;;
18146;SDS011;9199;48.832;9.182;2022-07-29T08:17:32;4.57;;;2.70;;
18146;SDS011;9199;48.832;9.182;2022-07-29T08:19:59;6.57;;;2.97;;
18146;SDS011;9199;48.832;9.182;2022-07-29T08:22:26;4.75;;;2.88;;
18146;SDS011;9199;48.832;9.182;2022-07-29T08:24:52;6.53;;;3.30;;
18146;SDS011;9199;48.832;9.182;2022-07-29T08:27:20;6.18;;;3.00;;
18146;SDS011;9199;48.832;9.182;2022-07-29T08:29:49;4.80;;;3.20;;
18146;SDS011;9199;48.832;9.182;2022-07-29T08:32:15;5.82;;;3.17;;
18146;SDS011;9199;48.832;9.182;2022-07-29T08:34:42;7.80;;;3.53;;
18146;SDS011;9199;48.832;9.182;2022-07-29T08:37:11;5.72;;;3.10;;
18146;SDS011;9199;48.832;9.182;2022-07-29T08:39:38;5.85;;;3.20;;
18146;SDS011;9199;48.832;9.182;2022-07-29T08:42:05;5.00;;;3.30;;
18146;SDS011;9199;48.832;9.182;2022-07-29T08:44:32;5.45;;;3.05;;
18146;SDS011;9199;48.832;9.182;2022-07-29T08:47:01;7.95;;;4.10;;
18146;SDS011;9199;48.832;9.182;2022-07-29T08:49:28;6.75;;;3.60;;
18146;SDS011;9199;48.832;9.182;2022-07-29T08:51:55;5.00;;;3.22;;
18146;SDS011;9199;48.832;9.182;2022-07-29T08:54:24;5.83;;;3.23;;
18146;SDS011;9199;48.832;9.182;2022-07-29T08:56:51;5.88;;;3.15;;
18146;SDS011;9199;48.832;9.182;2022-07-29T08:59:18;6.97;;;3.40;;
18146;SDS011;9199;48.832;9.182;2022-07-29T09:01:48;5.53;;;3.30;;
18146;SDS011;9199;48.832;9.182;2022-07-29T09:04:18;5.28;;;3.55;;
18146;SDS011;9199;48.832;9.182;2022-07-29T09:06:46;6.23;;;3.33;;
18146;SDS011;9199;48.832;9.182;2022-07-29T09:09:15;6.57;;;3.45;;
18146;SDS011;9199;48.832;9.182;2022-07-29T09:11:42;6.57;;;2.97;;
18146;SDS011;9199;48.832;9.182;2022-07-29T09:14:10;5.05;;;3.30;;
18146;SDS011;9199;48.832;9.182;2022-07-29T09:16:49;6.40;;;3.58;;
18146;SDS011;9199;48.832;9.182;2022-07-29T09:19:26;5.83;;;3.20;;
18146;SDS011;9199;48.832;9.182;2022-07-29T09:21:54;6.60;;;3.70;;
18146;SDS011;9199;48.832;9.182;2022-07-29T09:24:24;6.43;;;3.40;;
18146;SDS011;9199;48.832;9.182;2022-07-29T09:26:53;5.38;;;3.30;;
18146;SDS011;9199;48.832;9.182;2022-07-29T09:29:20;7.25;;;3.90;;
18146;SDS011;9199;48.832;9.182;2022-07-29T09:31:49;7.60;;;3.53;;
18146;SDS011;9199;48.832;9.182;2022-07-29T09:34:17;5.38;;;3.55;;
18146;SDS011;9199;48.832;9.182;2022-07-29T09:36:50;5.85;;;3.60;;
18146;SDS011;9199;48.832;9.182;2022-07-29T09:39:26;6.00;;;3.45;;
18146;SDS011;9199;48.832;9.182;2022-07-29T09:41:54;6.90;;;3.70;;
18146;SDS011;9199;48.832;9.182;2022-07-29T09:44:22;8.67;;;3.80;;
18146;SDS011;9199;48.832;9.182;2022-07-29T09:46:56;6.85;;;3.70;;
18146;SDS011;9199;48.832;9.182;2022-07-29T09:49:27;6.18;;;3.55;;
18146;SDS011;9199;48.832;9.182;2022-07-29T09:52:04;8.55;;;3.65;;
18146;SDS011;9199;48.832;9.182;2022-07-29T09:54:32;7.13;;;3.67;;
18146;SDS011;9199;48.832;9.182;2022-07-29T09:57:02;6.53;;;3.53;;
18146;SDS011;9199;48.832;9.182;2022-07-29T09:59:30;7.32;;;3.70;;
18146;SDS011;9199;48.832;9.182;2022-07-29T10:01:57;7.53;;;3.28;;
18146;SDS011;9199;48.832;9.182;2022-07-29T10:04:24;6.38;;;3.75;;
18146;SDS011;9199;48.832;9.182;2022-07-29T10:07:05;5.97;;;3.33;;
18146;SDS011;9199;48.832;9.182;2022-07-29T10:09:32;5.70;;;3.40;;
18146;SDS011;9199;48.832;9.182;2022-07-29T10:12:06;9.38;;;4.35;;
18146;SDS011;9199;48.832;9.182;2022-07-29T10:14:36;7.25;;;3.97;;
18146;SDS011;9199;48.832;9.182;2022-07-29T10:17:03;7.32;;;3.75;;
18146;SDS011;9199;48.832;9.182;2022-07-29T10:19:32;10.43;;;4.30;;
18146;SDS011;9199;48.832;9.182;2022-07-29T10:22:00;9.37;;;4.20;;
18146;SDS011;9199;48.832;9.182;2022-07-29T10:24:30;11.10;;;4.50;;
18146;SDS011;9199;48.832;9.182;2022-07-29T10:26:59;12.25;;;5.03;;
18146;SDS011;9199;48.832;9.182;2022-07-29T10:29:27;10.95;;;5.45;;
18146;SDS011;9199;48.832;9.182;2022-07-29T10:31:59;6.55;;;4.10;;
18146;SDS011;9199;48.832;9.182;2022-07-29T10:34:54;6.13;;;4.00;;
18146;SDS011;9199;48.832;9.182;2022-07-29T10:37:33;8.00;;;4.20;;
18146;SDS011;9199;48.832;9.182;2022-07-29T10:40:13;6.57;;;4.30;;
18146;SDS011;9199;48.832;9.182;2022-07-29T10:43:06;7.15;;;4.07;;
18146;SDS011;9199;48.832;9.182;2022-07-29T10:45:42;6.97;;;4.38;;
18146;SDS011;9199;48.832;9.182;2022-07-29T10:48:10;6.10;;;4.10;;
18146;SDS011;9199;48.832;9.182;2022-07-29T10:50:52;7.10;;;3.83;;
18146;SDS011;9199;48.832;9.182;2022-07-29T10:53:21;7.63;;;3.92;;
18146;SDS011;9199;48.832;9.182;2022-07-29T10:55:50;9.32;;;4.15;;
18146;SDS011;9199;48.832;9.182;2022-07-29T10:58:19;11.15;;;4.18;;
18146;SDS011;9199;48.832;9.182;2022-07-29T11:00:47;7.93;;;4.10;;
18146;SDS011;9199;48.832;9.182;2022-07-29T11:06:16;7.65;;;4.28;;
18146;SDS011;9199;48.832;9.182;2022-07-29T11:08:43;7.55;;;4.72;;
18146;SDS011;9199;48.832;9.182;2022-07-29T11:14:01;10.10;;;4.83;;
18146;SDS011;9199;48.832;9.182;2022-07-29T11:16:31;6.60;;;4.65;;
18146;SDS011;9199;48.832;9.182;2022-07-29T11:19:24;8.95;;;4.80;;
18146;SDS011;9199;48.832;9.182;2022-07-29T11:21:51;6.88;;;4.60;;
18146;SDS011;9199;48.832;9.182;2022-07-29T11:24:19;6.82;;;4.60;;
18146;SDS011;9199;48.832;9.182;2022-07-29T11:29:41;9.43;;;5.15;;
18146;SDS011;9199;48.832;9.182;2022-07-29T11:32:18;10.48;;;6.05;;
18146;SDS011;9199;48.832;9.182;2022-07-29T11:34:45;11.32;;;6.45;;
18146;SDS011;9199;48.832;9.182;2022-07-29T11:37:17;12.35;;;6.05;;
18146;SDS011;9199;48.832;9.182;2022-07-29T11:39:47;8.83;;;5.97;;
18146;SDS011;9199;48.832;9.182;2022-07-29T11:42:43;9.27;;;6.03;;
18146;SDS011;9199;48.832;9.182;2022-07-29T11:45:11;9.38;;;5.90;;
18146;SDS011;9199;48.832;9.182;2022-07-29T11:47:41;10.85;;;5.68;;
18146;SDS011;9199;48.832;9.182;2022-07-29T11:50:14;9.98;;;5.97;;
18146;SDS011;9199;48.832;9.182;2022-07-29T11:52:42;8.40;;;5.20;;
18146;SDS011;9199;48.832;9.182;2022-07-29T11:55:12;8.75;;;5.00;;
18146;SDS011;9199;48.832;9.182;2022-07-29T11:57:48;9.05;;;5.10;;
18146;SDS011;9199;48.832;9.182;2022-07-29T12:00:23;7.75;;;4.80;;
18146;SDS011;9199;48.832;9.182;2022-07-29T12:02:51;9.90;;;4.90;;
18146;SDS011;9199;48.832;9.182;2022-07-29T12:05:18;9.40;;;4.90;;
18146;SDS011;9199;48.832;9.182;2022-07-29T12:07:45;8.63;;;4.78;;
18146;SDS011;9199;48.832;9.182;2022-07-29T12:10:13;7.28;;;4.25;;
18146;SDS011;9199;48.832;9.182;2022-07-29T12:12:40;6.85;;;4.13;;
18146;SDS011;9199;48.832;9.182;2022-07-29T12:15:12;8.10;;;4.38;;
18146;SDS011;9199;48.832;9.182;2022-07-29T12:17:41;6.87;;;4.27;;
18146;SDS011;9199;48.832;9.182;2022-07-29T12:20:07;9.98;;;4.10;;
18146;SDS011;9199;48.832;9.182;2022-07-29T12:22:35;8.35;;;4.65;;
18146;SDS011;9199;48.832;9.182;2022-07-29T12:25:06;8.25;;;4.60;;
18146;SDS011;9199;48.832;9.182;2022-07-29T12:27:34;9.25;;;4.50;;
18146;SDS011;9199;48.832;9.182;2022-07-29T12:30:03;6.83;;;4.37;;
18146;SDS011;9199;48.832;9.182;2022-07-29T12:32:33;7.32;;;4.60;;
18146;SDS011;9199;48.832;9.182;2022-07-29T12:35:05;7.40;;;4.50;;
18146;SDS011;9199;48.832;9.182;2022-07-29T12:37:34;10.57;;;5.32;;
18146;SDS011;9199;48.832;9.182;2022-07-29T12:40:03;8.45;;;4.90;;
18146;SDS011;9199;48.832;9.182;2022-07-29T12:42:31;8.27;;;4.87;;
18146;SDS011;9199;48.832;9.182;2022-07-29T12:44:58;9.18;;;4.72;;
18146;SDS011;9199;48.832;9.182;2022-07-29T12:47:25;7.28;;;4.18;;
18146;SDS011;9199;48.832;9.182;2022-07-29T12:52:45;8.77;;;4.65;;
18146;SDS011;9199;48.832;9.182;2022-07-29T12:55:12;7.68;;;4.60;;
18146;SDS011;9199;48.832;9.182;2022-07-29T12:57:44;8.87;;;4.40;;
18146;SDS011;9199;48.832;9.182;2022-07-29T13:00:13;7.35;;;4.60;;
18146;SDS011;9199;48.832;9.182;2022-07-29T13:02:41;8.95;;;4.40;;
18146;SDS011;9199;48.832;9.182;2022-07-29T13:05:09;6.75;;;4.43;;
18146;SDS011;9199;48.832;9.182;2022-07-29T13:07:37;6.50;;;3.90;;
18146;SDS011;9199;48.832;9.182;2022-07-29T13:10:13;6.80;;;4.07;;
18146;SDS011;9199;48.832;9.182;2022-07-29T13:15:30;6.22;;;3.67;;
18146;SDS011;9199;48.832;9.182;2022-07-29T13:17:58;8.57;;;4.10;;
18146;SDS011;9199;48.832;9.182;2022-07-29T13:20:26;6.28;;;3.80;;
18146;SDS011;9199;48.832;9.182;2022-07-29T13:22:54;6.43;;;3.63;;
18146;SDS011;9199;48.832;9.182;2022-07-29T13:25:27;5.53;;;3.10;;
18146;SDS011;9199;48.832;9.182;2022-07-29T13:27:54;5.60;;;3.20;;
18146;SDS011;9199;48.832;9.182;2022-07-29T13:30:22;6.35;;;3.47;;
18146;SDS011;9199;48.832;9.182;2022-07-29T13:32:49;5.25;;;3.30;;
18146;SDS011;9199;48.832;9.182;2022-07-29T13:35:17;5.07;;;3.37;;
18146;SDS011;9199;48.832;9.182;2022-07-29T13:37:45;6.53;;;3.50;;
18146;SDS011;9199;48.832;9.182;2022-07-29T13:40:12;6.20;;;3.67;;
18146;SDS011;9199;48.832;9.182;2022-07-29T13:42:41;8.65;;;3.83;;
18146;SDS011;9199;48.832;9.182;2022-07-29T13:45:08;6.43;;;3.70;;
18146;SDS011;9199;48.832;9.182;2022-07-29T13:47:36;7.07;;;3.87;;
18146;SDS011;9199;48.832;9.182;2022-07-29T13:50:04;6.55;;;3.90;;
18146;SDS011;9199;48.832;9.182;2022-07-29T13:52:32;8.13;;;3.95;;
18146;SDS011;9199;48.832;9.182;2022-07-29T13:54:59;7.95;;;4.05;;
18146;SDS011;9199;48.832;9.182;2022-07-29T13:57:26;6.28;;;3.80;;
18146;SDS011;9199;48.832;9.182;2022-07-29T13:59:55;8.50;;;3.97;;
18146;SDS011;9199;48.832;9.182;2022-07-29T14:02:22;5.88;;;3.83;;
18146;SDS011;9199;48.832;9.182;2022-07-29T14:04:49;6.95;;;3.78;;
18146;SDS011;9199;48.832;9.182;2022-07-29T14:07:16;6.30;;;3.50;;
18146;SDS011;9199;48.832;9.182;2022-07-29T14:09:42;7.57;;;4.20;;
18146;SDS011;9199;48.832;9.182;2022-07-29T14:12:09;6.47;;;3.93;;
18146;SDS011;9199;48.832;9.182;2022-07-29T14:14:36;5.35;;;3.60;;
18146;SDS011;9199;48.832;9.182;2022-07-29T14:17:05;7.05;;;4.10;;
18146;SDS011;9199;48.832;9.182;2022-07-29T14:19:32;6.65;;;4.28;;
18146;SDS011;9199;48.832;9.182;2022-07-29T14:22:00;5.78;;;3.58;;
18146;SDS011;9199;48.832;9.182;2022-07-29T14:24:28;8.43;;;4.30;;
18146;SDS011;9199;48.832;9.182;2022-07-29T14:26:55;6.13;;;3.97;;
18146;SDS011;9199;48.832;9.182;2022-07-29T14:29:22;5.60;;;3.85;;
18146;SDS011;9199;48.832;9.182;2022-07-29T14:31:49;7.40;;;4.25;;
18146;SDS011;9199;48.832;9.182;2022-07-29T14:34:17;6.68;;;4.03;;
18146;SDS011;9199;48.832;9.182;2022-07-29T14:36:43;8.83;;;4.10;;
18146;SDS011;9199;48.832;9.182;2022-07-29T14:39:10;6.75;;;4.00;;
18146;SDS011;9199;48.832;9.182;2022-07-29T14:41:37;6.95;;;4.03;;
18146;SDS011;9199;48.832;9.182;2022-07-29T14:44:04;7.65;;;4.30;;
18146;SDS011;9199;48.832;9.182;2022-07-29T14:46:31;7.22;;;3.88;;
18146;SDS011;9199;48.832;9.182;2022-07-29T14:48:58;6.27;;;3.80;;
18146;SDS011;9199;48.832;9.182;2022-07-29T14:51:26;6.80;;;4.00;;
18146;SDS011;9199;48.832;9.182;2022-07-29T14:53:53;6.68;;;3.88;;
18146;SDS011;9199;48.832;9.182;2022-07-29T14:56:21;8.68;;;4.07;;
18146;SDS011;9199;48.832;9.182;2022-07-29T14:58:47;6.57;;;3.80;;
18146;SDS011;9199;48.832;9.182;2022-07-29T15:01:14;7.97;;;4.10;;
18146;SDS011;9199;48.832;9.182;2022-07-29T15:03:41;6.35;;;4.07;;
18146;SDS011;9199;48.832;9.182;2022-07-29T15:06:08;6.10;;;3.88;;
18146;SDS011;9199;48.832;9.182;2022-07-29T15:08:36;6.80;;;3.95;;
18146;SDS011;9199;48.832;9.182;2022-07-29T15:11:03;5.72;;;3.78;;
18146;SDS011;9199;48.832;9.182;2022-07-29T15:13:29;6.07;;;3.57;;
18146;SDS011;9199;48.832;9.182;2022-07-29T15:15:56;7.32;;;3.80;;
18146;SDS011;9199;48.832;9.182;2022-07-29T15:18:23;8.52;;;4.78;;
18146;SDS011;9199;48.832;9.182;2022-07-29T15:20:49;7.65;;;3.88;;
18146;SDS011;9199;48.832;9.182;2022-07-29T15:23:16;7.40;;;4.22;;
18146;SDS011;9199;48.832;9.182;2022-07-29T15:25:44;8.03;;;5.03;;
18146;SDS011;9199;48.832;9.182;2022-07-29T15:28:12;7.72;;;4.53;;
18146;SDS011;9199;48.832;9.182;2022-07-29T15:30:38;7.00;;;4.18;;